sensor_id;sensor_type;location;lat;lon;timestamp;temperature;humidity
22813;DHT22;11573;51.334;3.244;2023-07-20T00:02:04;17.30;99.90
22813;DHT22;11573;51.334;3.244;2023-07-20T00:04:32;17.30;99.90
22813;DHT22;11573;51.334;3.244;2023-07-20T00:06:59;17.20;99.90
22813;DHT22;11573;51.334;3.244;2023-07-20T00:09:27;17.20;99.90
22813;DHT22;11573;51.334;3.244;2023-07-20T00:11:55;17.00;99.90
22813;DHT22;11573;51.334;3.244;2023-07-20T00:14:22;17.10;99.90
22813;DHT22;11573;51.334;3.244;2023-07-20T00:16:54;17.00;99.90
22813;DHT22;11573;51.334;3.244;2023-07-20T00:19:26;17.00;99.90
22813;DHT22;11573;51.334;3.244;2023-07-20T00:21:54;17.00;99.90
22813;DHT22;11573;51.334;3.244;2023-07-20T00:24:21;16.80;99.90
22813;DHT22;11573;51.334;3.244;2023-07-20T00:26:48;16.80;99.90
22813;DHT22;11573;51.334;3.244;2023-07-20T00:29:16;16.80;99.90
22813;DHT22;11573;51.334;3.244;2023-07-20T00:31:43;16.90;99.90
22813;DHT22;11573;51.334;3.244;2023-07-20T00:34:10;16.90;99.90
22813;DHT22;11573;51.334;3.244;2023-07-20T00:36:39;16.90;99.90
22813;DHT22;11573;51.334;3.244;2023-07-20T00:39:07;16.80;99.90
22813;DHT22;11573;51.334;3.244;2023-07-20T00:41:34;16.80;99.90
22813;DHT22;11573;51.334;3.244;2023-07-20T00:44:02;16.70;99.90
22813;DHT22;11573;51.334;3.244;2023-07-20T00:46:29;16.70;99.90
22813;DHT22;11573;51.334;3.244;2023-07-20T00:48:56;16.60;99.90
22813;DHT22;11573;51.334;3.244;2023-07-20T00:51:25;16.60;99.90
22813;DHT22;11573;51.334;3.244;2023-07-20T00:53:53;16.60;99.90
22813;DHT22;11573;51.334;3.244;2023-07-20T00:56:22;16.60;99.90
22813;DHT22;11573;51.334;3.244;2023-07-20T00:58:50;16.60;99.90
22813;DHT22;11573;51.334;3.244;2023-07-20T01:01:17;16.60;99.90
22813;DHT22;11573;51.334;3.244;2023-07-20T01:03:44;16.50;99.90
22813;DHT22;11573;51.334;3.244;2023-07-20T01:09:19;16.50;99.90
22813;DHT22;11573;51.334;3.244;2023-07-20T01:14:20;16.40;99.90
22813;DHT22;11573;51.334;3.244;2023-07-20T01:16:47;16.50;99.90
22813;DHT22;11573;51.334;3.244;2023-07-20T01:19:16;16.50;99.90
22813;DHT22;11573;51.334;3.244;2023-07-20T01:22:09;16.60;99.90
22813;DHT22;11573;51.334;3.244;2023-07-20T01:25:08;16.50;99.90
22813;DHT22;11573;51.334;3.244;2023-07-20T01:28:05;16.50;99.90
22813;DHT22;11573;51.334;3.244;2023-07-20T01:33:08;16.50;99.90
22813;DHT22;11573;51.334;3.244;2023-07-20T01:35:36;16.50;99.90
22813;DHT22;11573;51.334;3.244;2023-07-20T01:38:04;16.60;99.90
22813;DHT22;11573;51.334;3.244;2023-07-20T01:40:32;16.70;99.90
22813;DHT22;11573;51.334;3.244;2023-07-20T01:43:00;16.60;99.90
22813;DHT22;11573;51.334;3.244;2023-07-20T01:45:27;16.50;99.90
22813;DHT22;11573;51.334;3.244;2023-07-20T01:47:54;16.50;99.90
22813;DHT22;11573;51.334;3.244;2023-07-20T01:50:21;16.50;99.90
22813;DHT22;11573;51.334;3.244;2023-07-20T01:52:48;16.50;99.90
22813;DHT22;11573;51.334;3.244;2023-07-20T01:55:15;16.60;99.90
22813;DHT22;11573;51.334;3.244;2023-07-20T01:57:42;16.70;99.90
22813;DHT22;11573;51.334;3.244;2023-07-20T02:00:09;16.90;99.90
22813;DHT22;11573;51.334;3.244;2023-07-20T02:02:42;16.90;99.90
22813;DHT22;11573;51.334;3.244;2023-07-20T02:05:10;16.80;99.90
22813;DHT22;11573;51.334;3.244;2023-07-20T02:07:37;16.90;99.90
22813;DHT22;11573;51.334;3.244;2023-07-20T02:10:04;16.90;99.90
22813;DHT22;11573;51.334;3.244;2023-07-20T02:12:31;16.90;99.90
22813;DHT22;11573;51.334;3.244;2023-07-20T02:14:58;16.90;99.90
22813;DHT22;11573;51.334;3.244;2023-07-20T02:17:25;16.90;99.90
22813;DHT22;11573;51.334;3.244;2023-07-20T02:19:53;16.90;99.90
22813;DHT22;11573;51.334;3.244;2023-07-20T02:22:21;16.90;99.90
22813;DHT22;11573;51.334;3.244;2023-07-20T02:24:48;17.00;99.90
22813;DHT22;11573;51.334;3.244;2023-07-20T02:27:16;17.00;99.90
22813;DHT22;11573;51.334;3.244;2023-07-20T02:29:43;17.00;99.90
22813;DHT22;11573;51.334;3.244;2023-07-20T02:32:10;17.00;99.90
22813;DHT22;11573;51.334;3.244;2023-07-20T02:34:38;16.90;99.90
22813;DHT22;11573;51.334;3.244;2023-07-20T02:37:05;17.00;99.90
22813;DHT22;11573;51.334;3.244;2023-07-20T02:39:32;17.00;99.90
22813;DHT22;11573;51.334;3.244;2023-07-20T02:41:59;16.90;99.90
22813;DHT22;11573;51.334;3.244;2023-07-20T02:44:28;16.90;99.90
22813;DHT22;11573;51.334;3.244;2023-07-20T02:46:55;16.90;99.90
22813;DHT22;11573;51.334;3.244;2023-07-20T02:49:22;16.90;99.90
22813;DHT22;11573;51.334;3.244;2023-07-20T02:51:49;16.90;99.90
22813;DHT22;11573;51.334;3.244;2023-07-20T02:54:16;16.90;99.90
22813;DHT22;11573;51.334;3.244;2023-07-20T02:56:43;16.90;99.90
22813;DHT22;11573;51.334;3.244;2023-07-20T02:59:10;16.90;99.90
22813;DHT22;11573;51.334;3.244;2023-07-20T03:01:37;16.80;99.90
22813;DHT22;11573;51.334;3.244;2023-07-20T03:04:04;16.90;99.90
22813;DHT22;11573;51.334;3.244;2023-07-20T03:06:31;17.00;99.90
22813;DHT22;11573;51.334;3.244;2023-07-20T03:08:59;17.00;99.90
22813;DHT22;11573;51.334;3.244;2023-07-20T03:11:26;16.90;99.90
22813;DHT22;11573;51.334;3.244;2023-07-20T03:13:53;17.00;99.90
22813;DHT22;11573;51.334;3.244;2023-07-20T03:16:24;16.90;99.90
22813;DHT22;11573;51.334;3.244;2023-07-20T03:18:53;16.80;99.90
22813;DHT22;11573;51.334;3.244;2023-07-20T03:21:19;16.70;99.90
22813;DHT22;11573;51.334;3.244;2023-07-20T03:23:46;16.70;99.90
22813;DHT22;11573;51.334;3.244;2023-07-20T03:26:14;16.60;99.90
22813;DHT22;11573;51.334;3.244;2023-07-20T03:28:41;16.60;99.90
22813;DHT22;11573;51.334;3.244;2023-07-20T03:31:09;16.50;99.90
22813;DHT22;11573;51.334;3.244;2023-07-20T03:33:39;16.50;99.90
22813;DHT22;11573;51.334;3.244;2023-07-20T03:36:08;16.50;99.90
22813;DHT22;11573;51.334;3.244;2023-07-20T03:38:37;16.50;99.90
22813;DHT22;11573;51.334;3.244;2023-07-20T03:41:04;16.50;99.90
22813;DHT22;11573;51.334;3.244;2023-07-20T03:43:31;16.60;99.90
22813;DHT22;11573;51.334;3.244;2023-07-20T03:45:58;16.60;99.90
22813;DHT22;11573;51.334;3.244;2023-07-20T03:48:25;16.60;99.90
22813;DHT22;11573;51.334;3.244;2023-07-20T03:50:53;16.60;99.90
22813;DHT22;11573;51.334;3.244;2023-07-20T03:53:21;16.70;99.90
22813;DHT22;11573;51.334;3.244;2023-07-20T03:55:52;16.70;99.90
22813;DHT22;11573;51.334;3.244;2023-07-20T03:58:20;16.70;99.90
22813;DHT22;11573;51.334;3.244;2023-07-20T04:00:50;16.70;99.90
22813;DHT22;11573;51.334;3.244;2023-07-20T04:03:18;16.80;99.90
22813;DHT22;11573;51.334;3.244;2023-07-20T04:05:46;16.90;99.90
22813;DHT22;11573;51.334;3.244;2023-07-20T04:08:13;16.90;99.90
22813;DHT22;11573;51.334;3.244;2023-07-20T04:10:43;16.80;99.90
22813;DHT22;11573;51.334;3.244;2023-07-20T04:13:11;16.80;99.90
22813;DHT22;11573;51.334;3.244;2023-07-20T04:15:38;16.80;99.90
22813;DHT22;11573;51.334;3.244;2023-07-20T04:18:06;16.80;99.90
22813;DHT22;11573;51.334;3.244;2023-07-20T04:20:33;16.90;99.90
22813;DHT22;11573;51.334;3.244;2023-07-20T04:23:00;16.90;99.90
22813;DHT22;11573;51.334;3.244;2023-07-20T04:25:28;17.00;99.90
22813;DHT22;11573;51.334;3.244;2023-07-20T04:27:55;17.10;99.90
22813;DHT22;11573;51.334;3.244;2023-07-20T04:30:22;17.30;99.90
22813;DHT22;11573;51.334;3.244;2023-07-20T04:32:50;17.30;99.90
22813;DHT22;11573;51.334;3.244;2023-07-20T04:35:50;17.50;99.90
22813;DHT22;11573;51.334;3.244;2023-07-20T04:38:22;17.70;99.90
22813;DHT22;11573;51.334;3.244;2023-07-20T04:40:58;18.10;99.90
22813;DHT22;11573;51.334;3.244;2023-07-20T04:43:29;18.90;99.90
22813;DHT22;11573;51.334;3.244;2023-07-20T04:45:56;19.90;99.90
22813;DHT22;11573;51.334;3.244;2023-07-20T04:48:24;20.60;99.90
22813;DHT22;11573;51.334;3.244;2023-07-20T04:50:53;21.80;99.90
22813;DHT22;11573;51.334;3.244;2023-07-20T04:53:20;22.20;99.90
22813;DHT22;11573;51.334;3.244;2023-07-20T04:55:49;22.80;99.90
22813;DHT22;11573;51.334;3.244;2023-07-20T04:58:20;22.70;99.90
22813;DHT22;11573;51.334;3.244;2023-07-20T05:00:48;22.90;99.90
22813;DHT22;11573;51.334;3.244;2023-07-20T05:03:16;22.90;99.90
22813;DHT22;11573;51.334;3.244;2023-07-20T05:05:43;22.90;99.90
22813;DHT22;11573;51.334;3.244;2023-07-20T05:08:13;22.90;99.90
22813;DHT22;11573;51.334;3.244;2023-07-20T05:10:40;22.30;99.90
22813;DHT22;11573;51.334;3.244;2023-07-20T05:13:08;21.90;99.90
22813;DHT22;11573;51.334;3.244;2023-07-20T05:15:35;21.60;99.90
22813;DHT22;11573;51.334;3.244;2023-07-20T05:18:04;20.90;99.90
22813;DHT22;11573;51.334;3.244;2023-07-20T05:20:32;20.90;99.90
22813;DHT22;11573;51.334;3.244;2023-07-20T05:23:00;21.20;99.90
22813;DHT22;11573;51.334;3.244;2023-07-20T05:25:28;21.60;99.90
22813;DHT22;11573;51.334;3.244;2023-07-20T05:27:57;21.80;99.90
22813;DHT22;11573;51.334;3.244;2023-07-20T05:30:25;22.50;99.90
22813;DHT22;11573;51.334;3.244;2023-07-20T05:32:52;23.80;99.90
22813;DHT22;11573;51.334;3.244;2023-07-20T05:35:23;24.50;99.90
22813;DHT22;11573;51.334;3.244;2023-07-20T05:37:50;24.70;99.90
22813;DHT22;11573;51.334;3.244;2023-07-20T05:40:17;24.80;99.90
22813;DHT22;11573;51.334;3.244;2023-07-20T05:42:48;25.20;99.90
22813;DHT22;11573;51.334;3.244;2023-07-20T05:45:18;24.80;99.90
22813;DHT22;11573;51.334;3.244;2023-07-20T05:47:46;23.50;99.90
22813;DHT22;11573;51.334;3.244;2023-07-20T05:50:13;23.10;99.90
22813;DHT22;11573;51.334;3.244;2023-07-20T05:52:40;23.50;99.90
22813;DHT22;11573;51.334;3.244;2023-07-20T05:55:08;24.00;99.90
22813;DHT22;11573;51.334;3.244;2023-07-20T05:57:35;23.80;99.90
22813;DHT22;11573;51.334;3.244;2023-07-20T06:00:02;23.60;99.90
22813;DHT22;11573;51.334;3.244;2023-07-20T06:02:38;23.20;99.90
22813;DHT22;11573;51.334;3.244;2023-07-20T06:05:06;22.60;99.90
22813;DHT22;11573;51.334;3.244;2023-07-20T06:07:39;21.50;99.90
22813;DHT22;11573;51.334;3.244;2023-07-20T06:10:06;20.60;99.90
22813;DHT22;11573;51.334;3.244;2023-07-20T06:12:34;20.20;99.90
22813;DHT22;11573;51.334;3.244;2023-07-20T06:15:02;20.00;99.90
22813;DHT22;11573;51.334;3.244;2023-07-20T06:17:30;19.70;99.90
22813;DHT22;11573;51.334;3.244;2023-07-20T06:19:57;19.60;99.90
22813;DHT22;11573;51.334;3.244;2023-07-20T06:22:24;19.60;99.90
22813;DHT22;11573;51.334;3.244;2023-07-20T06:24:51;19.90;99.90
22813;DHT22;11573;51.334;3.244;2023-07-20T06:27:18;20.10;99.90
22813;DHT22;11573;51.334;3.244;2023-07-20T06:29:45;20.30;99.90
22813;DHT22;11573;51.334;3.244;2023-07-20T06:32:12;20.30;99.90
22813;DHT22;11573;51.334;3.244;2023-07-20T06:34:40;20.50;99.90
22813;DHT22;11573;51.334;3.244;2023-07-20T06:37:07;20.50;99.90
22813;DHT22;11573;51.334;3.244;2023-07-20T06:39:34;20.50;99.90
22813;DHT22;11573;51.334;3.244;2023-07-20T06:42:04;20.60;99.90
22813;DHT22;11573;51.334;3.244;2023-07-20T06:44:31;20.50;99.90
22813;DHT22;11573;51.334;3.244;2023-07-20T06:46:58;20.10;99.90
22813;DHT22;11573;51.334;3.244;2023-07-20T06:49:26;19.80;99.90
22813;DHT22;11573;51.334;3.244;2023-07-20T06:51:54;19.80;99.90
22813;DHT22;11573;51.334;3.244;2023-07-20T06:54:21;19.80;99.90
22813;DHT22;11573;51.334;3.244;2023-07-20T06:56:50;20.00;99.90
22813;DHT22;11573;51.334;3.244;2023-07-20T06:59:37;20.00;99.90
22813;DHT22;11573;51.334;3.244;2023-07-20T07:02:07;20.20;99.90
22813;DHT22;11573;51.334;3.244;2023-07-20T07:04:41;20.10;99.90
22813;DHT22;11573;51.334;3.244;2023-07-20T07:07:08;20.30;99.90
22813;DHT22;11573;51.334;3.244;2023-07-20T07:09:36;20.40;99.90
22813;DHT22;11573;51.334;3.244;2023-07-20T07:12:04;20.30;99.90
22813;DHT22;11573;51.334;3.244;2023-07-20T07:14:31;20.30;99.90
22813;DHT22;11573;51.334;3.244;2023-07-20T07:16:59;20.40;99.90
22813;DHT22;11573;51.334;3.244;2023-07-20T07:19:31;20.10;99.90
22813;DHT22;11573;51.334;3.244;2023-07-20T07:21:58;20.30;99.90
22813;DHT22;11573;51.334;3.244;2023-07-20T07:24:27;20.70;99.90
22813;DHT22;11573;51.334;3.244;2023-07-20T07:27:00;20.50;99.90
22813;DHT22;11573;51.334;3.244;2023-07-20T07:29:28;20.60;99.90
22813;DHT22;11573;51.334;3.244;2023-07-20T07:31:55;20.90;99.90
22813;DHT22;11573;51.334;3.244;2023-07-20T07:34:23;20.90;99.90
22813;DHT22;11573;51.334;3.244;2023-07-20T07:36:50;21.00;99.90
22813;DHT22;11573;51.334;3.244;2023-07-20T07:39:17;21.20;99.90
22813;DHT22;11573;51.334;3.244;2023-07-20T07:41:48;21.40;99.90
22813;DHT22;11573;51.334;3.244;2023-07-20T07:44:15;21.50;99.90
22813;DHT22;11573;51.334;3.244;2023-07-20T07:46:43;21.30;99.90
22813;DHT22;11573;51.334;3.244;2023-07-20T07:49:10;21.40;99.90
22813;DHT22;11573;51.334;3.244;2023-07-20T07:51:38;21.50;99.90
22813;DHT22;11573;51.334;3.244;2023-07-20T07:54:05;21.80;99.90
22813;DHT22;11573;51.334;3.244;2023-07-20T07:56:32;22.10;99.90
22813;DHT22;11573;51.334;3.244;2023-07-20T07:59:00;22.10;99.90
22813;DHT22;11573;51.334;3.244;2023-07-20T08:01:27;21.70;99.90
22813;DHT22;11573;51.334;3.244;2023-07-20T08:03:54;21.50;99.90
22813;DHT22;11573;51.334;3.244;2023-07-20T08:06:21;21.40;99.90
22813;DHT22;11573;51.334;3.244;2023-07-20T08:08:51;21.30;99.90
22813;DHT22;11573;51.334;3.244;2023-07-20T08:11:18;21.20;99.90
22813;DHT22;11573;51.334;3.244;2023-07-20T08:13:45;21.20;99.90
22813;DHT22;11573;51.334;3.244;2023-07-20T08:16:12;21.70;99.90
22813;DHT22;11573;51.334;3.244;2023-07-20T08:18:41;21.80;99.90
22813;DHT22;11573;51.334;3.244;2023-07-20T08:21:08;21.80;99.90
22813;DHT22;11573;51.334;3.244;2023-07-20T08:23:35;21.90;99.90
22813;DHT22;11573;51.334;3.244;2023-07-20T08:26:03;22.20;99.90
22813;DHT22;11573;51.334;3.244;2023-07-20T08:28:30;22.30;99.90
22813;DHT22;11573;51.334;3.244;2023-07-20T08:30:58;22.30;99.90
22813;DHT22;11573;51.334;3.244;2023-07-20T08:33:26;22.30;99.90
22813;DHT22;11573;51.334;3.244;2023-07-20T08:35:56;22.20;99.90
22813;DHT22;11573;51.334;3.244;2023-07-20T08:38:24;22.20;99.90
22813;DHT22;11573;51.334;3.244;2023-07-20T08:40:51;22.10;99.90
22813;DHT22;11573;51.334;3.244;2023-07-20T08:43:23;22.20;99.90
22813;DHT22;11573;51.334;3.244;2023-07-20T08:45:57;22.20;99.90
22813;DHT22;11573;51.334;3.244;2023-07-20T08:48:24;22.60;99.90
22813;DHT22;11573;51.334;3.244;2023-07-20T08:50:54;22.70;99.90
22813;DHT22;11573;51.334;3.244;2023-07-20T08:53:23;22.80;99.90
22813;DHT22;11573;51.334;3.244;2023-07-20T08:55:51;23.00;99.90
22813;DHT22;11573;51.334;3.244;2023-07-20T08:58:20;22.80;99.90
22813;DHT22;11573;51.334;3.244;2023-07-20T09:00:47;22.80;99.90
22813;DHT22;11573;51.334;3.244;2023-07-20T09:03:18;23.20;99.90
22813;DHT22;11573;51.334;3.244;2023-07-20T09:05:46;23.20;99.90
22813;DHT22;11573;51.334;3.244;2023-07-20T09:08:13;22.90;99.90
22813;DHT22;11573;51.334;3.244;2023-07-20T09:10:40;22.80;99.90
22813;DHT22;11573;51.334;3.244;2023-07-20T09:13:07;22.60;99.90
22813;DHT22;11573;51.334;3.244;2023-07-20T09:15:36;22.40;99.90
22813;DHT22;11573;51.334;3.244;2023-07-20T09:18:04;22.60;99.90
22813;DHT22;11573;51.334;3.244;2023-07-20T09:20:36;22.70;99.90
22813;DHT22;11573;51.334;3.244;2023-07-20T09:23:06;22.40;99.90
22813;DHT22;11573;51.334;3.244;2023-07-20T09:25:34;22.70;99.90
22813;DHT22;11573;51.334;3.244;2023-07-20T09:28:03;22.70;99.90
22813;DHT22;11573;51.334;3.244;2023-07-20T09:30:32;22.60;99.90
22813;DHT22;11573;51.334;3.244;2023-07-20T09:33:00;22.40;99.90
22813;DHT22;11573;51.334;3.244;2023-07-20T09:35:27;22.30;99.90
22813;DHT22;11573;51.334;3.244;2023-07-20T09:38:08;22.10;99.90
22813;DHT22;11573;51.334;3.244;2023-07-20T09:40:40;22.00;99.90
22813;DHT22;11573;51.334;3.244;2023-07-20T09:43:10;21.70;99.90
22813;DHT22;11573;51.334;3.244;2023-07-20T09:45:42;21.70;99.90
22813;DHT22;11573;51.334;3.244;2023-07-20T09:48:12;21.70;99.90
22813;DHT22;11573;51.334;3.244;2023-07-20T09:50:51;22.10;99.90
22813;DHT22;11573;51.334;3.244;2023-07-20T09:53:19;22.50;99.90
22813;DHT22;11573;51.334;3.244;2023-07-20T09:55:47;22.80;99.90
22813;DHT22;11573;51.334;3.244;2023-07-20T09:58:15;22.50;99.90
22813;DHT22;11573;51.334;3.244;2023-07-20T10:00:44;22.10;99.90
22813;DHT22;11573;51.334;3.244;2023-07-20T10:03:19;22.40;99.90
22813;DHT22;11573;51.334;3.244;2023-07-20T10:06:01;22.00;99.90
22813;DHT22;11573;51.334;3.244;2023-07-20T10:08:38;21.80;99.90
22813;DHT22;11573;51.334;3.244;2023-07-20T10:11:12;21.60;99.90
22813;DHT22;11573;51.334;3.244;2023-07-20T10:13:43;21.50;99.90
22813;DHT22;11573;51.334;3.244;2023-07-20T10:16:21;21.30;99.90
22813;DHT22;11573;51.334;3.244;2023-07-20T10:19:05;21.30;99.90
22813;DHT22;11573;51.334;3.244;2023-07-20T10:21:47;21.30;99.90
22813;DHT22;11573;51.334;3.244;2023-07-20T10:24:22;21.60;99.90
22813;DHT22;11573;51.334;3.244;2023-07-20T10:26:50;21.50;99.90
22813;DHT22;11573;51.334;3.244;2023-07-20T10:29:18;21.80;99.90
22813;DHT22;11573;51.334;3.244;2023-07-20T10:31:46;22.00;99.90
22813;DHT22;11573;51.334;3.244;2023-07-20T10:34:13;22.00;99.90
22813;DHT22;11573;51.334;3.244;2023-07-20T10:36:45;21.90;99.90
22813;DHT22;11573;51.334;3.244;2023-07-20T10:39:32;21.90;99.90
22813;DHT22;11573;51.334;3.244;2023-07-20T10:42:06;21.70;99.90
22813;DHT22;11573;51.334;3.244;2023-07-20T10:44:37;21.60;99.90
22813;DHT22;11573;51.334;3.244;2023-07-20T10:47:12;21.70;99.90
22813;DHT22;11573;51.334;3.244;2023-07-20T10:50:09;21.90;99.90
22813;DHT22;11573;51.334;3.244;2023-07-20T10:52:39;21.90;99.90
22813;DHT22;11573;51.334;3.244;2023-07-20T10:55:16;21.90;99.90
22813;DHT22;11573;51.334;3.244;2023-07-20T10:58:10;21.70;99.90
22813;DHT22;11573;51.334;3.244;2023-07-20T11:00:55;21.40;99.90
22813;DHT22;11573;51.334;3.244;2023-07-20T11:03:35;21.20;99.90
22813;DHT22;11573;51.334;3.244;2023-07-20T11:06:36;21.40;99.90
22813;DHT22;11573;51.334;3.244;2023-07-20T11:09:10;21.40;99.90
22813;DHT22;11573;51.334;3.244;2023-07-20T11:11:39;21.50;99.90
22813;DHT22;11573;51.334;3.244;2023-07-20T11:14:08;21.40;99.90
22813;DHT22;11573;51.334;3.244;2023-07-20T11:16:45;21.30;99.90
22813;DHT22;11573;51.334;3.244;2023-07-20T11:21:51;21.30;99.90
22813;DHT22;11573;51.334;3.244;2023-07-20T11:24:29;21.50;99.90
22813;DHT22;11573;51.334;3.244;2023-07-20T11:26:57;21.40;99.90
22813;DHT22;11573;51.334;3.244;2023-07-20T11:29:24;21.30;99.90
22813;DHT22;11573;51.334;3.244;2023-07-20T11:32:00;21.30;99.90
22813;DHT22;11573;51.334;3.244;2023-07-20T11:34:33;21.10;99.90
22813;DHT22;11573;51.334;3.244;2023-07-20T11:37:01;21.10;99.90
22813;DHT22;11573;51.334;3.244;2023-07-20T11:39:31;21.00;99.90
22813;DHT22;11573;51.334;3.244;2023-07-20T11:41:58;21.10;99.90
22813;DHT22;11573;51.334;3.244;2023-07-20T11:44:29;21.10;99.90
22813;DHT22;11573;51.334;3.244;2023-07-20T11:49:30;21.40;99.90
22813;DHT22;11573;51.334;3.244;2023-07-20T11:52:00;21.20;99.90
22813;DHT22;11573;51.334;3.244;2023-07-20T11:54:28;21.10;99.90
22813;DHT22;11573;51.334;3.244;2023-07-20T11:56:56;21.00;99.90
22813;DHT22;11573;51.334;3.244;2023-07-20T11:59:23;20.90;99.90
22813;DHT22;11573;51.334;3.244;2023-07-20T12:01:52;20.70;99.90
22813;DHT22;11573;51.334;3.244;2023-07-20T12:04:23;20.70;99.90
22813;DHT22;11573;51.334;3.244;2023-07-20T12:06:51;20.70;99.90
22813;DHT22;11573;51.334;3.244;2023-07-20T12:09:20;20.80;99.90
22813;DHT22;11573;51.334;3.244;2023-07-20T12:11:49;20.80;99.90
22813;DHT22;11573;51.334;3.244;2023-07-20T12:14:17;20.80;99.90
22813;DHT22;11573;51.334;3.244;2023-07-20T12:16:44;21.10;99.90
22813;DHT22;11573;51.334;3.244;2023-07-20T12:19:19;21.10;99.90
22813;DHT22;11573;51.334;3.244;2023-07-20T12:21:46;20.80;99.90
22813;DHT22;11573;51.334;3.244;2023-07-20T12:24:13;20.60;99.90
22813;DHT22;11573;51.334;3.244;2023-07-20T12:26:40;20.50;99.90
22813;DHT22;11573;51.334;3.244;2023-07-20T12:29:08;20.50;99.90
22813;DHT22;11573;51.334;3.244;2023-07-20T12:31:36;20.70;99.90
22813;DHT22;11573;51.334;3.244;2023-07-20T12:34:04;20.90;99.90
22813;DHT22;11573;51.334;3.244;2023-07-20T12:36:31;21.20;99.90
22813;DHT22;11573;51.334;3.244;2023-07-20T12:38:58;21.30;99.90
22813;DHT22;11573;51.334;3.244;2023-07-20T12:41:26;21.60;99.90
22813;DHT22;11573;51.334;3.244;2023-07-20T12:43:53;21.80;99.90
22813;DHT22;11573;51.334;3.244;2023-07-20T12:46:20;21.80;99.90
22813;DHT22;11573;51.334;3.244;2023-07-20T12:48:49;21.70;99.90
22813;DHT22;11573;51.334;3.244;2023-07-20T12:51:16;22.00;99.90
22813;DHT22;11573;51.334;3.244;2023-07-20T12:53:45;22.50;99.90
22813;DHT22;11573;51.334;3.244;2023-07-20T12:56:12;22.80;99.90
22813;DHT22;11573;51.334;3.244;2023-07-20T12:58:42;22.80;99.90
22813;DHT22;11573;51.334;3.244;2023-07-20T13:01:10;22.80;99.90
22813;DHT22;11573;51.334;3.244;2023-07-20T13:03:37;22.70;99.90
22813;DHT22;11573;51.334;3.244;2023-07-20T13:06:25;22.60;99.90
22813;DHT22;11573;51.334;3.244;2023-07-20T13:08:55;22.80;99.90
22813;DHT22;11573;51.334;3.244;2023-07-20T13:11:23;22.80;99.90
22813;DHT22;11573;51.334;3.244;2023-07-20T13:13:51;23.00;99.90
22813;DHT22;11573;51.334;3.244;2023-07-20T13:16:19;23.00;99.90
22813;DHT22;11573;51.334;3.244;2023-07-20T13:18:46;23.20;99.90
22813;DHT22;11573;51.334;3.244;2023-07-20T13:21:14;23.30;99.90
22813;DHT22;11573;51.334;3.244;2023-07-20T13:23:41;23.00;99.90
22813;DHT22;11573;51.334;3.244;2023-07-20T13:26:09;22.50;99.90
22813;DHT22;11573;51.334;3.244;2023-07-20T13:28:36;22.40;99.90
22813;DHT22;11573;51.334;3.244;2023-07-20T13:31:04;22.70;99.90
22813;DHT22;11573;51.334;3.244;2023-07-20T13:33:31;22.80;99.90
22813;DHT22;11573;51.334;3.244;2023-07-20T13:36:03;22.80;99.90
22813;DHT22;11573;51.334;3.244;2023-07-20T13:38:35;22.50;99.90
22813;DHT22;11573;51.334;3.244;2023-07-20T13:41:03;22.50;99.90
22813;DHT22;11573;51.334;3.244;2023-07-20T13:43:30;22.20;99.90
22813;DHT22;11573;51.334;3.244;2023-07-20T13:45:57;22.10;99.90
22813;DHT22;11573;51.334;3.244;2023-07-20T13:48:25;22.20;99.90
22813;DHT22;11573;51.334;3.244;2023-07-20T13:50:54;22.20;99.90
22813;DHT22;11573;51.334;3.244;2023-07-20T13:53:25;22.20;99.90
22813;DHT22;11573;51.334;3.244;2023-07-20T13:55:55;22.20;99.90
22813;DHT22;11573;51.334;3.244;2023-07-20T13:58:26;22.40;99.90
22813;DHT22;11573;51.334;3.244;2023-07-20T14:00:53;22.60;99.90
22813;DHT22;11573;51.334;3.244;2023-07-20T14:03:22;22.90;99.90
22813;DHT22;11573;51.334;3.244;2023-07-20T14:05:50;22.80;99.90
22813;DHT22;11573;51.334;3.244;2023-07-20T14:08:21;22.80;99.90
22813;DHT22;11573;51.334;3.244;2023-07-20T14:10:48;22.90;99.90
22813;DHT22;11573;51.334;3.244;2023-07-20T14:13:18;22.80;99.90
22813;DHT22;11573;51.334;3.244;2023-07-20T14:15:46;22.80;99.90
22813;DHT22;11573;51.334;3.244;2023-07-20T14:18:13;22.40;99.90
22813;DHT22;11573;51.334;3.244;2023-07-20T14:20:44;22.30;99.90
22813;DHT22;11573;51.334;3.244;2023-07-20T14:23:11;22.20;99.90
22813;DHT22;11573;51.334;3.244;2023-07-20T14:25:39;22.40;99.90
22813;DHT22;11573;51.334;3.244;2023-07-20T14:28:07;22.50;99.90
22813;DHT22;11573;51.334;3.244;2023-07-20T14:30:34;22.60;99.90
22813;DHT22;11573;51.334;3.244;2023-07-20T14:33:01;22.60;99.90
22813;DHT22;11573;51.334;3.244;2023-07-20T14:35:29;22.60;99.90
22813;DHT22;11573;51.334;3.244;2023-07-20T14:37:56;22.60;99.90
22813;DHT22;11573;51.334;3.244;2023-07-20T14:40:23;22.50;99.90
22813;DHT22;11573;51.334;3.244;2023-07-20T14:42:50;22.40;99.90
22813;DHT22;11573;51.334;3.244;2023-07-20T14:45:18;22.40;99.90
22813;DHT22;11573;51.334;3.244;2023-07-20T14:47:45;22.30;99.90
22813;DHT22;11573;51.334;3.244;2023-07-20T14:50:12;22.40;99.90
22813;DHT22;11573;51.334;3.244;2023-07-20T14:52:39;22.30;99.90
22813;DHT22;11573;51.334;3.244;2023-07-20T14:55:09;22.30;99.90
22813;DHT22;11573;51.334;3.244;2023-07-20T14:57:36;22.40;99.90
22813;DHT22;11573;51.334;3.244;2023-07-20T15:00:05;22.30;99.90
22813;DHT22;11573;51.334;3.244;2023-07-20T15:02:34;22.80;99.90
22813;DHT22;11573;51.334;3.244;2023-07-20T15:05:02;23.40;99.90
22813;DHT22;11573;51.334;3.244;2023-07-20T15:07:29;24.00;99.90
22813;DHT22;11573;51.334;3.244;2023-07-20T15:09:56;24.30;99.90
22813;DHT22;11573;51.334;3.244;2023-07-20T15:12:23;24.70;99.90
22813;DHT22;11573;51.334;3.244;2023-07-20T15:15:10;24.50;99.90
22813;DHT22;11573;51.334;3.244;2023-07-20T15:17:38;24.20;99.90
22813;DHT22;11573;51.334;3.244;2023-07-20T15:20:07;24.00;99.90
22813;DHT22;11573;51.334;3.244;2023-07-20T15:22:35;23.70;99.90
22813;DHT22;11573;51.334;3.244;2023-07-20T15:25:03;23.50;99.90
22813;DHT22;11573;51.334;3.244;2023-07-20T15:27:31;23.40;99.90
22813;DHT22;11573;51.334;3.244;2023-07-20T15:29:58;23.30;99.90
22813;DHT22;11573;51.334;3.244;2023-07-20T15:32:25;23.40;99.90
22813;DHT22;11573;51.334;3.244;2023-07-20T15:34:52;23.40;99.90
22813;DHT22;11573;51.334;3.244;2023-07-20T15:37:19;23.20;99.90
22813;DHT22;11573;51.334;3.244;2023-07-20T15:39:50;23.10;99.90
22813;DHT22;11573;51.334;3.244;2023-07-20T15:42:21;23.10;99.90
22813;DHT22;11573;51.334;3.244;2023-07-20T15:45:04;23.10;99.90
22813;DHT22;11573;51.334;3.244;2023-07-20T15:47:31;22.90;99.90
22813;DHT22;11573;51.334;3.244;2023-07-20T15:49:59;22.90;99.90
22813;DHT22;11573;51.334;3.244;2023-07-20T15:52:27;22.70;99.90
22813;DHT22;11573;51.334;3.244;2023-07-20T15:54:56;22.70;99.90
22813;DHT22;11573;51.334;3.244;2023-07-20T15:57:24;22.60;99.90